sensor_id;sensor_type;location;lat;lon;timestamp;pressure;altitude;pressure_sealevel;temperature;humidity
53340;BME280;46212;50.258;19.062;2023-06-24T00:01:30;98636.00;;;19.51;73.88
53340;BME280;46212;50.258;19.062;2023-06-24T00:03:57;98638.28;;;19.47;73.94
53340;BME280;46212;50.258;19.062;2023-06-24T00:06:22;98621.53;;;19.42;74.00
53340;BME280;46212;50.258;19.062;2023-06-24T00:08:51;98627.09;;;19.47;74.13
53340;BME280;46212;50.258;19.062;2023-06-24T00:11:17;98640.59;;;19.49;73.88
53340;BME280;46212;50.258;19.062;2023-06-24T00:13:43;98616.66;;;19.48;73.70
53340;BME280;46212;50.258;19.062;2023-06-24T00:16:09;98618.97;;;19.33;74.46
53340;BME280;46212;50.258;19.062;2023-06-24T00:18:36;98622.56;;;19.33;75.09
53340;BME280;46212;50.258;19.062;2023-06-24T00:21:02;98622.03;;;19.29;74.60
53340;BME280;46212;50.258;19.062;2023-06-24T00:23:29;98618.25;;;19.27;74.86
53340;BME280;46212;50.258;19.062;2023-06-24T00:25:55;98620.81;;;19.25;74.95
53340;BME280;46212;50.258;19.062;2023-06-24T00:28:22;98617.25;;;19.24;74.97
53340;BME280;46212;50.258;19.062;2023-06-24T00:30:48;98611.88;;;19.26;74.87
53340;BME280;46212;50.258;19.062;2023-06-24T00:33:14;98611.63;;;19.30;74.65
53340;BME280;46212;50.258;19.062;2023-06-24T00:35:41;98609.59;;;19.25;75.33
53340;BME280;46212;50.258;19.062;2023-06-24T00:38:07;98606.50;;;19.28;75.37
53340;BME280;46212;50.258;19.062;2023-06-24T00:40:32;98594.31;;;19.26;75.19
53340;BME280;46212;50.258;19.062;2023-06-24T00:42:58;98593.53;;;19.25;75.15
53340;BME280;46212;50.258;19.062;2023-06-24T00:45:24;98585.84;;;19.48;74.34
53340;BME280;46212;50.258;19.062;2023-06-24T00:47:50;98581.81;;;19.32;74.62
53340;BME280;46212;50.258;19.062;2023-06-24T00:50:17;98596.59;;;19.33;75.28
53340;BME280;46212;50.258;19.062;2023-06-24T00:52:42;98605.03;;;19.22;75.91
53340;BME280;46212;50.258;19.062;2023-06-24T00:55:12;98619.03;;;19.22;75.73
53340;BME280;46212;50.258;19.062;2023-06-24T00:57:47;98614.44;;;19.19;75.87
53340;BME280;46212;50.258;19.062;2023-06-24T01:00:21;98617.25;;;19.13;76.44
53340;BME280;46212;50.258;19.062;2023-06-24T01:02:47;98615.25;;;19.08;76.60
53340;BME280;46212;50.258;19.062;2023-06-24T01:05:13;98619.81;;;19.11;76.68
53340;BME280;46212;50.258;19.062;2023-06-24T01:07:40;98617.00;;;19.17;76.77
53340;BME280;46212;50.258;19.062;2023-06-24T01:10:06;98617.53;;;19.09;77.24
53340;BME280;46212;50.258;19.062;2023-06-24T01:12:33;98624.16;;;19.12;76.89
53340;BME280;46212;50.258;19.062;2023-06-24T01:14:59;98621.91;;;18.99;77.08
53340;BME280;46212;50.258;19.062;2023-06-24T01:17:55;98623.69;;;19.02;77.16
53340;BME280;46212;50.258;19.062;2023-06-24T01:23:16;98628.75;;;19.04;77.05
53340;BME280;46212;50.258;19.062;2023-06-24T01:34:29;98619.91;;;18.83;77.31
53340;BME280;46212;50.258;19.062;2023-06-24T01:37:00;98628.03;;;18.81;77.56
53340;BME280;46212;50.258;19.062;2023-06-24T01:39:31;98639.47;;;18.78;77.74
53340;BME280;46212;50.258;19.062;2023-06-24T01:42:05;98637.72;;;18.80;78.32
53340;BME280;46212;50.258;19.062;2023-06-24T01:44:33;98636.94;;;18.74;78.62
53340;BME280;46212;50.258;19.062;2023-06-24T01:47:01;98637.72;;;18.80;78.72
53340;BME280;46212;50.258;19.062;2023-06-24T01:49:31;98642.03;;;18.76;78.73
53340;BME280;46212;50.258;19.062;2023-06-24T01:51:59;98638.72;;;18.72;79.13
53340;BME280;46212;50.258;19.062;2023-06-24T01:54:28;98643.31;;;18.69;79.39
53340;BME280;46212;50.258;19.062;2023-06-24T01:56:57;98634.41;;;18.71;79.24
53340;BME280;46212;50.258;19.062;2023-06-24T01:59:27;98636.69;;;18.67;79.58
53340;BME280;46212;50.258;19.062;2023-06-24T02:01:54;98626.25;;;18.73;79.36
53340;BME280;46212;50.258;19.062;2023-06-24T02:04:20;98628.78;;;18.87;79.48
53340;BME280;46212;50.258;19.062;2023-06-24T02:06:47;98637.72;;;18.69;80.22
53340;BME280;46212;50.258;19.062;2023-06-24T02:09:15;98632.38;;;18.66;80.42
53340;BME280;46212;50.258;19.062;2023-06-24T02:11:42;98640.00;;;18.71;80.27
53340;BME280;46212;50.258;19.062;2023-06-24T02:14:10;98631.09;;;18.72;80.61
53340;BME280;46212;50.258;19.062;2023-06-24T02:16:36;98629.81;;;18.79;80.51
53340;BME280;46212;50.258;19.062;2023-06-24T02:19:04;98614.56;;;18.80;80.73
53340;BME280;46212;50.258;19.062;2023-06-24T02:21:34;98622.44;;;18.65;81.65
53340;BME280;46212;50.258;19.062;2023-06-24T02:24:01;98615.84;;;18.62;81.77
53340;BME280;46212;50.258;19.062;2023-06-24T02:26:26;98619.41;;;18.63;82.12
53340;BME280;46212;50.258;19.062;2023-06-24T02:28:53;98625.25;;;18.65;82.15
53340;BME280;46212;50.258;19.062;2023-06-24T02:31:19;98632.63;;;18.68;82.16
53340;BME280;46212;50.258;19.062;2023-06-24T02:33:44;98643.31;;;18.69;82.28
53340;BME280;46212;50.258;19.062;2023-06-24T02:36:10;98633.88;;;18.72;82.55
53340;BME280;46212;50.258;19.062;2023-06-24T02:38:36;98631.09;;;18.67;82.86
53340;BME280;46212;50.258;19.062;2023-06-24T02:41:01;98635.88;;;18.94;81.94
53340;BME280;46212;50.258;19.062;2023-06-24T02:43:30;98627.00;;;18.84;82.25
53340;BME280;46212;50.258;19.062;2023-06-24T02:45:55;98639.22;;;18.76;82.86
53340;BME280;46212;50.258;19.062;2023-06-24T02:48:22;98639.25;;;18.70;83.36
53340;BME280;46212;50.258;19.062;2023-06-24T02:50:48;98632.13;;;18.69;83.84
53340;BME280;46212;50.258;19.062;2023-06-24T02:53:14;98642.00;;;18.98;82.54
53340;BME280;46212;50.258;19.062;2023-06-24T02:55:41;98639.44;;;19.00;82.29
53340;BME280;46212;50.258;19.062;2023-06-24T02:58:08;98629.81;;;18.79;83.17
53340;BME280;46212;50.258;19.062;2023-06-24T03:00:35;98642.53;;;18.74;83.83
53340;BME280;46212;50.258;19.062;2023-06-24T03:03:02;98636.94;;;18.80;83.42
53340;BME280;46212;50.258;19.062;2023-06-24T03:05:29;98642.28;;;18.83;83.62
53340;BME280;46212;50.258;19.062;2023-06-24T03:07:56;98632.09;;;18.91;83.35
53340;BME280;46212;50.258;19.062;2023-06-24T03:10:23;98639.44;;;19.00;83.12
53340;BME280;46212;50.258;19.062;2023-06-24T03:12:49;98638.97;;;18.68;84.68
53340;BME280;46212;50.258;19.062;2023-06-24T03:15:14;98633.63;;;18.81;84.32
53340;BME280;46212;50.258;19.062;2023-06-24T03:17:39;98637.13;;;19.04;83.90
53340;BME280;46212;50.258;19.062;2023-06-24T03:20:05;98629.75;;;19.12;82.42
53340;BME280;46212;50.258;19.062;2023-06-24T03:22:32;98643.16;;;19.36;82.18
53340;BME280;46212;50.258;19.062;2023-06-24T03:24:57;98646.22;;;19.43;81.55
53340;BME280;46212;50.258;19.062;2023-06-24T03:27:24;98655.22;;;19.08;83.23
53340;BME280;46212;50.258;19.062;2023-06-24T03:29:49;98655.19;;;19.03;84.16
53340;BME280;46212;50.258;19.062;2023-06-24T03:32:14;98658.28;;;19.05;83.92
53340;BME280;46212;50.258;19.062;2023-06-24T03:34:40;98652.63;;;19.27;83.32
53340;BME280;46212;50.258;19.062;2023-06-24T03:37:06;98646.91;;;19.60;81.54
53340;BME280;46212;50.258;19.062;2023-06-24T03:39:31;98664.63;;;19.80;80.79
53340;BME280;46212;50.258;19.062;2023-06-24T03:41:57;98660.59;;;19.70;81.93
53340;BME280;46212;50.258;19.062;2023-06-24T03:44:22;98657.84;;;19.64;81.80
53340;BME280;46212;50.258;19.062;2023-06-24T03:46:48;98668.50;;;19.71;81.89
53340;BME280;46212;50.258;19.062;2023-06-24T03:49:13;98669.09;;;19.53;82.43
53340;BME280;46212;50.258;19.062;2023-06-24T03:51:38;98663.84;;;19.22;84.28
53340;BME280;46212;50.258;19.062;2023-06-24T03:54:04;98672.66;;;19.59;82.99
53340;BME280;46212;50.258;19.062;2023-06-24T03:56:29;98671.94;;;19.36;84.73
53340;BME280;46212;50.258;19.062;2023-06-24T03:58:55;98679.81;;;19.32;84.99
53340;BME280;46212;50.258;19.062;2023-06-24T04:01:20;98672.94;;;19.44;83.87
53340;BME280;46212;50.258;19.062;2023-06-24T04:03:46;98686.75;;;19.03;87.29
53340;BME280;46212;50.258;19.062;2023-06-24T04:06:12;98687.97;;;19.47;84.79
53340;BME280;46212;50.258;19.062;2023-06-24T04:08:37;98688.44;;;19.56;84.71
53340;BME280;46212;50.258;19.062;2023-06-24T04:11:05;98696.09;;;19.50;84.90
53340;BME280;46212;50.258;19.062;2023-06-24T04:13:32;98683.69;;;19.24;86.65
53340;BME280;46212;50.258;19.062;2023-06-24T04:15:57;98688.75;;;19.42;86.44
53340;BME280;46212;50.258;19.062;2023-06-24T04:18:23;98691.78;;;19.49;86.44
53340;BME280;46212;50.258;19.062;2023-06-24T04:20:48;98690.25;;;19.48;86.28
53340;BME280;46212;50.258;19.062;2023-06-24T04:23:14;98701.44;;;19.59;86.45
53340;BME280;46212;50.258;19.062;2023-06-24T04:25:40;98684.13;;;19.55;86.63
53340;BME280;46212;50.258;19.062;2023-06-24T04:28:06;98698.88;;;19.61;86.61
53340;BME280;46212;50.258;19.062;2023-06-24T04:30:32;98697.84;;;19.53;87.58
53340;BME280;46212;50.258;19.062;2023-06-24T04:32:58;98691.00;;;19.49;88.13
53340;BME280;46212;50.258;19.062;2023-06-24T04:35:24;98705.03;;;19.49;88.37
53340;BME280;46212;50.258;19.062;2023-06-24T04:37:49;98704.25;;;19.48;88.90
53340;BME280;46212;50.258;19.062;2023-06-24T04:40:17;98708.06;;;19.51;89.00
53340;BME280;46212;50.258;19.062;2023-06-24T04:42:44;98715.72;;;19.45;89.84
53340;BME280;46212;50.258;19.062;2023-06-24T04:45:09;98713.16;;;19.36;89.78
53340;BME280;46212;50.258;19.062;2023-06-24T04:47:35;98719.53;;;19.42;89.97
53340;BME280;46212;50.258;19.062;2023-06-24T04:50:01;98725.16;;;19.42;89.88
53340;BME280;46212;50.258;19.062;2023-06-24T04:52:26;98730.50;;;19.40;90.04
53340;BME280;46212;50.258;19.062;2023-06-24T04:54:52;98734.56;;;19.33;90.44
53340;BME280;46212;50.258;19.062;2023-06-24T04:57:28;98725.66;;;19.24;90.88
53340;BME280;46212;50.258;19.062;2023-06-24T04:59:54;98715.47;;;19.26;90.67
53340;BME280;46212;50.258;19.062;2023-06-24T05:02:20;98726.91;;;19.28;90.45
53340;BME280;46212;50.258;19.062;2023-06-24T05:04:45;98724.91;;;19.23;90.91
53340;BME280;46212;50.258;19.062;2023-06-24T05:07:11;98724.41;;;19.25;91.24
53340;BME280;46212;50.258;19.062;2023-06-24T05:09:37;98724.13;;;19.23;91.12
53340;BME280;46212;50.258;19.062;2023-06-24T05:12:06;98731.00;;;19.16;91.59
53340;BME280;46212;50.258;19.062;2023-06-24T05:14:34;98741.97;;;19.20;91.75
53340;BME280;46212;50.258;19.062;2023-06-24T05:16:59;98746.53;;;19.23;91.31
53340;BME280;46212;50.258;19.062;2023-06-24T05:19:25;98752.94;;;19.12;92.45
53340;BME280;46212;50.258;19.062;2023-06-24T05:21:50;98753.41;;;19.16;91.95
53340;BME280;46212;50.258;19.062;2023-06-24T05:24:15;98751.13;;;19.09;92.53
53340;BME280;46212;50.258;19.062;2023-06-24T05:26:41;98753.69;;;18.96;93.38
53340;BME280;46212;50.258;19.062;2023-06-24T05:29:06;98751.66;;;19.07;93.21
53340;BME280;46212;50.258;19.062;2023-06-24T05:31:32;98755.97;;;19.14;92.57
53340;BME280;46212;50.258;19.062;2023-06-24T05:33:57;98756.22;;;19.10;91.91
53340;BME280;46212;50.258;19.062;2023-06-24T05:36:22;98747.06;;;18.93;92.06
53340;BME280;46212;50.258;19.062;2023-06-24T05:38:48;98766.94;;;18.95;91.83
53340;BME280;46212;50.258;19.062;2023-06-24T05:41:14;98768.44;;;18.96;91.29
53340;BME280;46212;50.258;19.062;2023-06-24T05:43:42;98760.56;;;18.95;90.95
53340;BME280;46212;50.258;19.062;2023-06-24T05:46:07;98764.63;;;18.88;91.42
53340;BME280;46212;50.258;19.062;2023-06-24T05:48:33;98767.94;;;18.98;89.89
53340;BME280;46212;50.258;19.062;2023-06-24T05:50:58;98775.06;;;18.99;89.87
53340;BME280;46212;50.258;19.062;2023-06-24T05:53:23;98782.19;;;19.00;88.72
53340;BME280;46212;50.258;19.062;2023-06-24T05:55:49;98780.41;;;18.91;88.49
53340;BME280;46212;50.258;19.062;2023-06-24T05:58:15;98782.19;;;18.89;88.30
53340;BME280;46212;50.258;19.062;2023-06-24T06:00:40;98794.91;;;18.90;88.14
53340;BME280;46212;50.258;19.062;2023-06-24T06:03:06;98788.56;;;18.89;87.55
53340;BME280;46212;50.258;19.062;2023-06-24T06:05:31;98786.78;;;18.86;87.60
53340;BME280;46212;50.258;19.062;2023-06-24T06:07:56;98782.94;;;18.78;88.02
53340;BME280;46212;50.258;19.062;2023-06-24T06:10:22;98791.06;;;18.87;87.87
53340;BME280;46212;50.258;19.062;2023-06-24T06:12:47;98793.88;;;18.87;87.07
53340;BME280;46212;50.258;19.062;2023-06-24T06:15:13;98802.28;;;18.93;85.61
53340;BME280;46212;50.258;19.062;2023-06-24T06:17:38;98796.69;;;18.98;84.68
53340;BME280;46212;50.258;19.062;2023-06-24T06:20:04;98787.03;;;18.83;84.84
53340;BME280;46212;50.258;19.062;2023-06-24T06:22:30;98795.44;;;19.05;83.20
53340;BME280;46212;50.258;19.062;2023-06-24T06:24:57;98800.25;;;19.04;83.15
53340;BME280;46212;50.258;19.062;2023-06-24T06:27:22;98804.56;;;19.22;82.56
53340;BME280;46212;50.258;19.062;2023-06-24T06:29:48;98806.34;;;19.36;80.58
53340;BME280;46212;50.258;19.062;2023-06-24T06:32:13;98811.69;;;19.51;79.79
53340;BME280;46212;50.258;19.062;2023-06-24T06:34:38;98821.13;;;19.53;79.35
53340;BME280;46212;50.258;19.062;2023-06-24T06:37:04;98812.22;;;19.49;79.12
53340;BME280;46212;50.258;19.062;2023-06-24T06:39:29;98816.28;;;19.59;78.09
53340;BME280;46212;50.258;19.062;2023-06-24T06:41:55;98815.00;;;19.72;77.57
53340;BME280;46212;50.258;19.062;2023-06-24T06:44:20;98826.66;;;19.87;76.31
53340;BME280;46212;50.258;19.062;2023-06-24T06:46:46;98832.00;;;19.90;76.34
53340;BME280;46212;50.258;19.062;2023-06-24T06:49:11;98834.28;;;19.92;76.27
53340;BME280;46212;50.258;19.062;2023-06-24T06:51:37;98835.78;;;20.04;75.76
53340;BME280;46212;50.258;19.062;2023-06-24T06:54:02;98828.91;;;20.05;74.74
53340;BME280;46212;50.258;19.062;2023-06-24T06:56:28;98850.25;;;20.25;74.40
53340;BME280;46212;50.258;19.062;2023-06-24T06:58:53;98845.66;;;20.27;73.67
53340;BME280;46212;50.258;19.062;2023-06-24T07:01:19;98842.88;;;20.27;73.17
53340;BME280;46212;50.258;19.062;2023-06-24T07:03:45;98841.81;;;20.25;72.83
53340;BME280;46212;50.258;19.062;2023-06-24T07:06:10;98854.34;;;20.29;72.77
53340;BME280;46212;50.258;19.062;2023-06-24T07:08:36;98848.13;;;20.47;72.89
53340;BME280;46212;50.258;19.062;2023-06-24T07:11:04;98851.19;;;20.49;73.06
53340;BME280;46212;50.258;19.062;2023-06-24T07:13:29;98851.88;;;20.66;71.86
53340;BME280;46212;50.258;19.062;2023-06-24T07:15:55;98869.78;;;20.52;71.62
53340;BME280;46212;50.258;19.062;2023-06-24T07:18:20;98861.41;;;20.47;70.73
53340;BME280;46212;50.258;19.062;2023-06-24T07:20:46;98861.69;;;20.38;71.20
53340;BME280;46212;50.258;19.062;2023-06-24T07:23:11;98874.22;;;20.26;71.41
53340;BME280;46212;50.258;19.062;2023-06-24T07:25:37;98863.50;;;20.24;72.01
53340;BME280;46212;50.258;19.062;2023-06-24T07:28:03;98866.31;;;20.19;72.15
53340;BME280;46212;50.258;19.062;2023-06-24T07:30:28;98873.19;;;20.34;71.46
53340;BME280;46212;50.258;19.062;2023-06-24T07:32:54;98872.34;;;20.50;70.98
53340;BME280;46212;50.258;19.062;2023-06-24T07:35:19;98871.63;;;20.44;71.05
53340;BME280;46212;50.258;19.062;2023-06-24T07:37:45;98879.97;;;20.55;70.51
53340;BME280;46212;50.258;19.062;2023-06-24T07:40:10;98881.00;;;20.58;70.79
53340;BME280;46212;50.258;19.062;2023-06-24T07:42:36;98891.38;;;20.68;70.38
53340;BME280;46212;50.258;19.062;2023-06-24T07:45:01;98878.88;;;20.70;69.96
53340;BME280;46212;50.258;19.062;2023-06-24T07:47:27;98889.31;;;20.75;68.92
53340;BME280;46212;50.258;19.062;2023-06-24T07:49:52;98890.56;;;20.79;68.99
53340;BME280;46212;50.258;19.062;2023-06-24T07:52:18;98895.88;;;20.88;68.75
53340;BME280;46212;50.258;19.062;2023-06-24T07:54:43;98896.03;;;20.60;69.26
53340;BME280;46212;50.258;19.062;2023-06-24T07:57:09;98891.38;;;20.68;69.02
53340;BME280;46212;50.258;19.062;2023-06-24T07:59:34;98895.19;;;20.77;68.77
53340;BME280;46212;50.258;19.062;2023-06-24T08:02:00;98907.16;;;20.77;68.44
53340;BME280;46212;50.258;19.062;2023-06-24T08:04:25;98909.47;;;20.79;69.08
53340;BME280;46212;50.258;19.062;2023-06-24T08:06:51;98914.78;;;20.88;68.64
53340;BME280;46212;50.258;19.062;2023-06-24T08:09:17;98913.53;;;20.83;68.38
53340;BME280;46212;50.258;19.062;2023-06-24T08:11:43;98918.56;;;20.96;68.52
53340;BME280;46212;50.258;19.062;2023-06-24T08:14:08;98923.91;;;20.94;68.37
53340;BME280;46212;50.258;19.062;2023-06-24T08:16:33;98926.41;;;21.03;68.87
53340;BME280;46212;50.258;19.062;2023-06-24T08:18:59;98936.81;;;21.19;68.43
53340;BME280;46212;50.258;19.062;2023-06-24T08:21:24;98931.09;;;21.36;67.53
53340;BME280;46212;50.258;19.062;2023-06-24T08:23:49;98923.66;;;21.38;67.62
53340;BME280;46212;50.258;19.062;2023-06-24T08:26:16;98936.63;;;21.06;68.12
53340;BME280;46212;50.258;19.062;2023-06-24T08:28:42;98937.00;;;20.86;69.06
53340;BME280;46212;50.258;19.062;2023-06-24T08:31:07;98938.38;;;20.62;70.55
53340;BME280;46212;50.258;19.062;2023-06-24T08:33:33;98937.22;;;20.88;69.87
53340;BME280;46212;50.258;19.062;2023-06-24T08:35:58;98942.53;;;20.97;69.90
53340;BME280;46212;50.258;19.062;2023-06-24T08:38:24;98935.97;;;20.89;70.53
53340;BME280;46212;50.258;19.062;2023-06-24T08:40:49;98942.38;;;20.78;70.72
53340;BME280;46212;50.258;19.062;2023-06-24T08:43:16;98955.19;;;20.74;71.20
53340;BME280;46212;50.258;19.062;2023-06-24T08:45:41;98952.94;;;20.55;71.80
53340;BME280;46212;50.258;19.062;2023-06-24T08:48:07;98959.53;;;20.63;71.73
53340;BME280;46212;50.258;19.062;2023-06-24T08:50:36;98961.84;;;20.59;71.52
53340;BME280;46212;50.258;19.062;2023-06-24T08:53:07;98960.56;;;20.55;72.12
53340;BME280;46212;50.258;19.062;2023-06-24T08:55:38;98954.00;;;20.41;71.55
53340;BME280;46212;50.258;19.062;2023-06-24T08:58:04;98963.69;;;20.40;72.28
53340;BME280;46212;50.258;19.062;2023-06-24T09:00:30;98954.78;;;20.42;73.01
53340;BME280;46212;50.258;19.062;2023-06-24T09:02:55;98958.56;;;20.50;71.96
53340;BME280;46212;50.258;19.062;2023-06-24T09:05:21;98959.28;;;20.61;71.07
53340;BME280;46212;50.258;19.062;2023-06-24T09:07:49;98959.47;;;20.80;70.62
53340;BME280;46212;50.258;19.062;2023-06-24T09:10:35;98973.50;;;20.86;69.46
53340;BME280;46212;50.258;19.062;2023-06-24T09:13:01;98971.13;;;21.01;69.00
53340;BME280;46212;50.258;19.062;2023-06-24T09:15:37;98978.00;;;21.00;68.30
53340;BME280;46212;50.258;19.062;2023-06-24T09:18:04;98964.72;;;21.11;68.66
53340;BME280;46212;50.258;19.062;2023-06-24T09:20:30;98973.38;;;21.13;68.35
53340;BME280;46212;50.258;19.062;2023-06-24T09:23:03;98979.50;;;21.12;68.05
53340;BME280;46212;50.258;19.062;2023-06-24T09:25:30;98975.41;;;21.13;67.85
53340;BME280;46212;50.258;19.062;2023-06-24T09:27:59;98980.84;;;21.41;68.05
53340;BME280;46212;50.258;19.062;2023-06-24T09:30:25;98984.78;;;21.67;67.71
53340;BME280;46212;50.258;19.062;2023-06-24T09:32:51;98988.91;;;21.96;67.38
53340;BME280;46212;50.258;19.062;2023-06-24T09:35:21;98985.97;;;22.13;66.96
53340;BME280;46212;50.258;19.062;2023-06-24T09:40:16;98985.97;;;22.37;64.08
53340;BME280;46212;50.258;19.062;2023-06-24T09:42:49;98973.06;;;22.23;64.57
53340;BME280;46212;50.258;19.062;2023-06-24T09:45:19;98978.69;;;22.47;64.63
53340;BME280;46212;50.258;19.062;2023-06-24T09:47:44;98980.81;;;22.65;63.51
53340;BME280;46212;50.258;19.062;2023-06-24T09:50:10;98986.25;;;22.82;63.50
53340;BME280;46212;50.258;19.062;2023-06-24T09:52:35;98983.75;;;22.54;62.77
53340;BME280;46212;50.258;19.062;2023-06-24T09:55:01;98992.53;;;22.45;62.83
53340;BME280;46212;50.258;19.062;2023-06-24T09:57:28;98999.75;;;22.16;63.55
53340;BME280;46212;50.258;19.062;2023-06-24T09:59:55;99011.84;;;22.06;63.36
53340;BME280;46212;50.258;19.062;2023-06-24T10:02:20;99000.97;;;21.86;64.69
53340;BME280;46212;50.258;19.062;2023-06-24T10:04:46;99002.16;;;21.66;65.43
53340;BME280;46212;50.258;19.062;2023-06-24T10:07:13;98998.88;;;21.56;67.24
53340;BME280;46212;50.258;19.062;2023-06-24T10:09:40;98988.47;;;21.51;68.34
53340;BME280;46212;50.258;19.062;2023-06-24T10:12:06;98994.91;;;21.46;68.50
53340;BME280;46212;50.258;19.062;2023-06-24T10:14:31;99004.75;;;21.17;69.16
53340;BME280;46212;50.258;19.062;2023-06-24T10:17:01;98997.81;;;21.30;69.43
53340;BME280;46212;50.258;19.062;2023-06-24T10:19:27;99001.56;;;21.43;68.66
53340;BME280;46212;50.258;19.062;2023-06-24T10:21:55;98995.34;;;21.56;67.19
53340;BME280;46212;50.258;19.062;2023-06-24T10:27:08;99009.84;;;21.25;67.88
53340;BME280;46212;50.258;19.062;2023-06-24T10:29:37;99011.88;;;21.18;68.27
53340;BME280;46212;50.258;19.062;2023-06-24T10:32:07;99008.09;;;21.16;68.23
53340;BME280;46212;50.258;19.062;2023-06-24T10:34:34;99008.28;;;21.29;68.32
53340;BME280;46212;50.258;19.062;2023-06-24T10:39:57;99002.88;;;21.31;67.79
53340;BME280;46212;50.258;19.062;2023-06-24T10:44:50;99011.31;;;21.31;67.44
53340;BME280;46212;50.258;19.062;2023-06-24T10:47:16;99011.03;;;21.40;66.84
53340;BME280;46212;50.258;19.062;2023-06-24T10:49:41;99013.13;;;21.29;66.60
53340;BME280;46212;50.258;19.062;2023-06-24T10:52:10;99017.66;;;21.43;66.57
53340;BME280;46212;50.258;19.062;2023-06-24T10:54:40;99008.41;;;21.48;66.22
53340;BME280;46212;50.258;19.062;2023-06-24T10:57:06;99015.44;;;21.30;66.56
53340;BME280;46212;50.258;19.062;2023-06-24T10:59:39;99024.47;;;21.01;68.68
53340;BME280;46212;50.258;19.062;2023-06-24T11:02:04;99022.38;;;21.18;67.85
53340;BME280;46212;50.258;19.062;2023-06-24T11:04:29;99022.13;;;21.16;68.16
53340;BME280;46212;50.258;19.062;2023-06-24T11:07:02;99037.31;;;20.74;68.66
53340;BME280;46212;50.258;19.062;2023-06-24T11:09:28;99032.03;;;20.54;70.54
53340;BME280;46212;50.258;19.062;2023-06-24T11:11:53;99035.09;;;20.45;70.62
53340;BME280;46212;50.258;19.062;2023-06-24T11:14:19;99038.44;;;20.38;71.30
53340;BME280;46212;50.258;19.062;2023-06-24T11:16:45;99031.78;;;20.24;71.62
53340;BME280;46212;50.258;19.062;2023-06-24T11:19:11;99032.81;;;20.27;71.29
53340;BME280;46212;50.258;19.062;2023-06-24T11:21:36;99042.75;;;20.22;71.54
53340;BME280;46212;50.258;19.062;2023-06-24T11:24:03;99028.75;;;20.17;71.83
53340;BME280;46212;50.258;19.062;2023-06-24T11:26:28;99035.34;;;20.25;71.22
53340;BME280;46212;50.258;19.062;2023-06-24T11:28:54;99037.13;;;20.22;70.52
53340;BME280;46212;50.258;19.062;2023-06-24T11:31:27;99033.56;;;20.16;71.06
53340;BME280;46212;50.258;19.062;2023-06-24T11:33:53;99017.50;;;20.05;70.21
53340;BME280;46212;50.258;19.062;2023-06-24T11:36:21;99046.56;;;20.08;70.66
53340;BME280;46212;50.258;19.062;2023-06-24T11:38:47;99036.63;;;20.01;71.17
53340;BME280;46212;50.258;19.062;2023-06-24T11:41:14;99034.06;;;19.92;71.16
53340;BME280;46212;50.258;19.062;2023-06-24T11:43:46;99020.31;;;19.78;71.65
53340;BME280;46212;50.258;19.062;2023-06-24T11:46:27;99032.53;;;19.75;71.73
53340;BME280;46212;50.258;19.062;2023-06-24T11:49:04;99042.22;;;19.74;72.22
53340;BME280;46212;50.258;19.062;2023-06-24T11:51:29;99039.66;;;19.59;72.19
53340;BME280;46212;50.258;19.062;2023-06-24T11:53:59;99036.81;;;19.42;72.37
53340;BME280;46212;50.258;19.062;2023-06-24T11:56:38;99042.00;;;19.01;74.59
53340;BME280;46212;50.258;19.062;2023-06-24T11:59:05;99047.13;;;19.08;74.43
53340;BME280;46212;50.258;19.062;2023-06-24T12:01:31;99031.38;;;19.17;75.04
53340;BME280;46212;50.258;19.062;2023-06-24T12:03:59;99042.47;;;19.65;72.51
53340;BME280;46212;50.258;19.062;2023-06-24T12:06:25;99046.28;;;19.67;71.29
53340;BME280;46212;50.258;19.062;2023-06-24T12:08:51;99036.63;;;19.74;70.71
53340;BME280;46212;50.258;19.062;2023-06-24T12:11:16;99038.91;;;19.75;70.68
53340;BME280;46212;50.258;19.062;2023-06-24T12:13:41;99034.06;;;19.87;69.69
53340;BME280;46212;50.258;19.062;2023-06-24T12:16:07;99044.78;;;19.94;68.37
53340;BME280;46212;50.258;19.062;2023-06-24T12:18:32;99026.44;;;20.04;68.20
53340;BME280;46212;50.258;19.062;2023-06-24T12:20:57;99037.38;;;20.24;67.52
53340;BME280;46212;50.258;19.062;2023-06-24T12:23:23;99034.56;;;20.52;66.82
53340;BME280;46212;50.258;19.062;2023-06-24T12:25:48;99039.16;;;20.49;65.36
53340;BME280;46212;50.258;19.062;2023-06-24T12:28:14;99040.97;;;20.25;66.35
53340;BME280;46212;50.258;19.062;2023-06-24T12:30:39;99038.69;;;20.34;66.24
53340;BME280;46212;50.258;19.062;2023-06-24T12:33:04;99047.56;;;20.49;65.99
53340;BME280;46212;50.258;19.062;2023-06-24T12:35:33;99040.47;;;19.87;67.35
53340;BME280;46212;50.258;19.062;2023-06-24T12:37:59;99041.97;;;20.22;66.47
53340;BME280;46212;50.258;19.062;2023-06-24T12:40:24;99037.41;;;20.41;66.26
53340;BME280;46212;50.258;19.062;2023-06-24T12:42:49;99048.63;;;20.35;66.51
53340;BME280;46212;50.258;19.062;2023-06-24T12:45:15;99049.13;;;20.39;65.81
53340;BME280;46212;50.258;19.062;2023-06-24T12:47:40;99058.06;;;20.38;66.35
53340;BME280;46212;50.258;19.062;2023-06-24T12:50:06;99062.09;;;19.98;66.99
53340;BME280;46212;50.258;19.062;2023-06-24T12:52:33;99061.09;;;20.12;66.82
53340;BME280;46212;50.258;19.062;2023-06-24T12:54:59;99053.72;;;20.03;67.04
53340;BME280;46212;50.258;19.062;2023-06-24T12:57:24;99051.16;;;20.05;67.18
53340;BME280;46212;50.258;19.062;2023-06-24T12:59:50;99056.75;;;20.05;67.64
53340;BME280;46212;50.258;19.062;2023-06-24T13:02:15;99059.81;;;19.96;67.93
53340;BME280;46212;50.258;19.062;2023-06-24T13:04:40;99061.63;;;19.94;68.47
53340;BME280;46212;50.258;19.062;2023-06-24T13:07:06;99066.19;;;19.86;68.36
53340;BME280;46212;50.258;19.062;2023-06-24T13:09:32;99068.97;;;19.69;69.32